Time;durP1;ratioP1;P1;durP2;ratioP2;P2;SDS_P1;SDS_P2;PMS_P1;PMS_P2;Temp;Humidity;BMP_temperature;BMP_pressure;BME280_temperature;BME280_humidity;BME280_pressure;Samples;Min_cycle;Max_cycle;Signal;HPM_P1;HPM_P2
2022/12/20 00:02:02;;;;;;;;;;;;;;;20.58;30.99;103412.23;102156;1326;61354;-81
2022/12/20 00:04:27;;;;;;;;;;;;;;;20.58;30.77;103411.16;102053;1332;61311;-81
2022/12/20 00:06:52;;;;;;;;;;;;;;;20.58;30.96;103410.60;102025;1329;61456;-81
2022/12/20 00:09:18;;;;;;;;;;;;;;;20.58;30.75;103412.93;102122;1325;61488;-81
2022/12/20 00:11:43;;;;;;;;;;;;;;;20.58;30.93;103415.08;102026;1328;61279;-80
2022/12/20 00:14:09;;;;;;;;;;;;;;;20.58;31.05;103410.41;102019;1328;61302;-80
2022/12/20 00:16:34;;;;;;;;;;;;;;;20.58;30.90;103417.57;102151;1330;61315;-80
2022/12/20 00:19:00;;;;;;;;;;;;;;;20.58;31.03;103415.25;102028;1329;61522;-80
2022/12/20 00:21:26;;;;;;;;;;;;;;;20.58;30.85;103405.77;102043;1329;61463;-80
2022/12/20 00:23:51;;;;;;;;;;;;;;;20.58;30.80;103408.81;102054;1325;61302;-81
2022/12/20 00:26:17;;;;;;;;;;;;;;;20.59;30.87;103407.36;102092;1329;61381;-81
2022/12/20 00:28:44;;;;;;;;;;;;;;;20.58;30.89;103400.05;102014;1330;59443;-81
2022/12/20 00:31:10;;;;;;;;;;;;;;;20.58;30.94;103399.14;101973;1320;61341;-81
2022/12/20 00:33:36;;;;;;;;;;;;;;;20.59;30.82;103400.38;102036;1330;61300;-81
2022/12/20 00:36:02;;;;;;;;;;;;;;;20.59;30.83;103396.45;102057;1330;61267;-81
2022/12/20 00:38:28;;;;;;;;;;;;;;;20.58;30.85;103396.81;102066;1327;61360;-81
2022/12/20 00:41:03;;;;;;;;;;;;;;;20.58;30.67;103401.11;102104;1332;61308;-81
2022/12/20 00:43:28;;;;;;;;;;;;;;;20.59;30.82;103396.64;102169;1326;61231;-81
2022/12/20 00:45:54;;;;;;;;;;;;;;;20.59;30.82;103395.91;102076;1329;61288;-81
2022/12/20 00:48:19;;;;;;;;;;;;;;;20.59;30.83;103388.75;102053;1332;61379;-81
2022/12/20 00:50:45;;;;;;;;;;;;;;;20.59;30.95;103387.86;102010;1328;61315;-81
2022/12/20 00:53:10;;;;;;;;;;;;;;;20.58;30.69;103389.29;102075;1326;61282;-81
2022/12/20 00:55:42;;;;;;;;;;;;;;;20.58;30.92;103389.48;102024;1333;61321;-81
2022/12/20 00:58:08;;;;;;;;;;;;;;;20.58;30.86;103383.23;102028;1329;61593;-81
2022/12/20 01:00:33;;;;;;;;;;;;;;;20.58;30.90;103378.39;102184;1325;61311;-81
2022/12/20 01:02:59;;;;;;;;;;;;;;;20.58;30.75;103379.84;102069;1332;61766;-81
2022/12/20 01:05:24;;;;;;;;;;;;;;;20.58;30.74;103376.61;102056;1333;61314;-81
2022/12/20 01:07:49;;;;;;;;;;;;;;;20.58;30.96;103373.91;102119;1333;61380;-81
2022/12/20 01:10:15;;;;;;;;;;;;;;;20.59;30.90;103371.04;102082;1319;61495;-81
2022/12/20 01:12:40;;;;;;;;;;;;;;;20.59;30.83;103367.83;102055;1327;61328;-81
2022/12/20 01:15:06;;;;;;;;;;;;;;;20.58;30.79;103367.29;102050;1325;61378;-81
2022/12/20 01:17:32;;;;;;;;;;;;;;;20.58;30.62;103362.65;102170;1326;61273;-81
2022/12/20 01:19:57;;;;;;;;;;;;;;;20.58;30.71;103356.73;102092;1329;61787;-81
2022/12/20 01:22:23;;;;;;;;;;;;;;;20.58;30.75;103351.37;101973;1325;61309;-81
2022/12/20 01:24:48;;;;;;;;;;;;;;;20.58;30.69;103350.84;102009;1321;61277;-81
2022/12/20 01:27:13;;;;;;;;;;;;;;;20.58;30.78;103350.13;102057;1333;61347;-82
2022/12/20 01:29:39;;;;;;;;;;;;;;;20.58;30.76;103351.02;102009;1333;60124;-81
2022/12/20 01:32:04;;;;;;;;;;;;;;;20.58;30.81;103347.64;102120;1326;61256;-81
2022/12/20 01:34:31;;;;;;;;;;;;;;;20.58;30.57;103339.92;102162;1333;61397;-81
2022/12/20 01:36:56;;;;;;;;;;;;;;;20.58;30.87;103338.86;102043;1333;60106;-81
2022/12/20 01:39:22;;;;;;;;;;;;;;;20.58;30.76;103336.17;102069;1330;61288;-81
2022/12/20 01:41:47;;;;;;;;;;;;;;;20.58;30.65;103330.61;102060;1325;61328;-81
2022/12/20 01:44:15;;;;;;;;;;;;;;;20.58;30.47;103324.90;102190;1326;61389;-81
2022/12/20 01:46:41;;;;;;;;;;;;;;;20.58;30.76;103323.48;102147;1332;61309;-81
2022/12/20 01:49:06;;;;;;;;;;;;;;;20.58;30.63;103315.60;102154;1330;61494;-81
2022/12/20 01:51:33;;;;;;;;;;;;;;;20.58;30.71;103308.81;102182;1326;61312;-81
2022/12/20 01:54:01;;;;;;;;;;;;;;;20.58;30.68;103302.89;102047;1329;61154;-81
2022/12/20 01:56:26;;;;;;;;;;;;;;;20.58;30.72;103296.27;102106;1329;61185;-81
2022/12/20 01:58:52;;;;;;;;;;;;;;;20.57;30.64;103295.39;102006;1326;61411;-81
2022/12/20 02:01:17;;;;;;;;;;;;;;;20.57;30.62;103290.38;102063;1330;60054;-81
2022/12/20 02:03:43;;;;;;;;;;;;;;;20.57;30.68;103290.21;102022;1327;61752;-81
2022/12/20 02:06:12;;;;;;;;;;;;;;;20.57;30.49;103286.45;102061;1328;61429;-81
2022/12/20 02:08:38;;;;;;;;;;;;;;;20.58;30.58;103287.15;102150;1327;61214;-81
2022/12/20 02:11:22;;;;;;;;;;;;;;;20.57;30.61;103281.45;102127;1332;61356;-81
2022/12/20 02:13:53;;;;;;;;;;;;;;;20.57;30.43;103277.33;102033;1325;73337;-81
2022/12/20 02:16:21;;;;;;;;;;;;;;;20.57;30.47;103274.30;102173;1333;61313;-82
2022/12/20 02:19:07;;;;;;;;;;;;;;;20.57;30.59;103268.02;102042;1328;61313;-82
2022/12/20 02:21:38;;;;;;;;;;;;;;;20.57;30.51;103264.98;102158;1325;73665;-82
2022/12/20 02:24:39;;;;;;;;;;;;;;;20.58;30.43;103264.61;102058;1334;74536;-82
2022/12/20 02:27:13;;;;;;;;;;;;;;;20.57;30.51;103268.02;101900;1330;61268;-82
2022/12/20 02:29:57;;;;;;;;;;;;;;;20.57;30.57;103262.83;101914;1336;61236;-81
2022/12/20 02:32:27;;;;;;;;;;;;;;;20.58;30.57;103260.33;101891;1337;72575;-81
2022/12/20 02:34:53;;;;;;;;;;;;;;;20.58;30.49;103257.98;101896;1332;74373;-81
2022/12/20 02:37:18;;;;;;;;;;;;;;;20.58;30.62;103251.19;101910;1332;61586;-81
2022/12/20 02:39:43;;;;;;;;;;;;;;;20.58;30.46;103247.07;101929;1337;61342;-81
2022/12/20 02:42:09;;;;;;;;;;;;;;;20.58;30.47;103245.10;101827;1339;61433;-81
2022/12/20 02:47:21;;;;;;;;;;;;;;;20.58;30.39;103247.96;101790;1335;73430;-81
2022/12/20 02:49:46;;;;;;;;;;;;;;;20.58;30.29;103247.63;101882;1332;61221;-81
2022/12/20 02:52:12;;;;;;;;;;;;;;;20.58;30.52;103246.72;101897;1339;61303;-81
2022/12/20 02:54:37;;;;;;;;;;;;;;;20.57;30.45;103249.59;101891;1337;61507;-81
2022/12/20 02:57:05;;;;;;;;;;;;;;;20.58;30.35;103247.98;101831;1324;61600;-81
2022/12/20 02:59:36;;;;;;;;;;;;;;;20.58;30.35;103250.66;101911;1332;61172;-81
2022/12/20 03:02:01;;;;;;;;;;;;;;;20.58;30.42;103246.90;102074;1332;61302;-81
2022/12/20 03:04:28;;;;;;;;;;;;;;;20.58;30.38;103245.28;102160;1330;61270;-81
2022/12/20 03:07:04;;;;;;;;;;;;;;;20.57;30.30;103246.90;102093;1330;61353;-82
2022/12/20 03:09:30;;;;;;;;;;;;;;;20.58;30.33;103242.95;102186;1326;61167;-82
2022/12/20 03:11:56;;;;;;;;;;;;;;;20.58;30.49;103237.41;102075;1333;61389;-82
2022/12/20 03:14:21;;;;;;;;;;;;;;;20.58;30.32;103232.95;102080;1327;61313;-81
2022/12/20 03:16:46;;;;;;;;;;;;;;;20.58;30.43;103229.90;102134;1332;61456;-81
2022/12/20 03:19:12;;;;;;;;;;;;;;;20.58;30.23;103223.27;102186;1330;60070;-81
2022/12/20 03:21:37;;;;;;;;;;;;;;;20.58;30.42;103221.66;102195;1326;61277;-81
2022/12/20 03:24:03;;;;;;;;;;;;;;;20.58;30.37;103224.70;102161;1326;61276;-81
2022/12/20 03:26:28;;;;;;;;;;;;;;;20.58;30.50;103220.23;102166;1327;61319;-81
2022/12/20 03:28:54;;;;;;;;;;;;;;;20.58;30.17;103224.52;102151;1326;60044;-81
2022/12/20 03:31:19;;;;;;;;;;;;;;;20.58;30.37;103231.16;102168;1333;61324;-81
2022/12/20 03:33:46;;;;;;;;;;;;;;;20.58;30.43;103232.95;102155;1329;61275;-81
2022/12/20 03:36:11;;;;;;;;;;;;;;;20.58;30.42;103231.70;102148;1326;61320;-81
2022/12/20 03:38:37;;;;;;;;;;;;;;;20.58;30.35;103231.33;102186;1333;61397;-81
2022/12/20 03:41:02;;;;;;;;;;;;;;;20.58;30.36;103229.72;102158;1327;61497;-81
2022/12/20 03:43:27;;;;;;;;;;;;;;;20.59;30.39;103230.41;102094;1333;61310;-81
2022/12/20 03:45:53;;;;;;;;;;;;;;;20.59;30.43;103222.73;102181;1325;61430;-81
2022/12/20 03:48:18;;;;;;;;;;;;;;;20.59;30.24;103214.67;102143;1326;60088;-81
2022/12/20 03:50:45;;;;;;;;;;;;;;;20.58;30.35;103211.64;102170;1332;61290;-81
2022/12/20 03:53:10;;;;;;;;;;;;;;;20.59;30.43;103210.91;102126;1326;61259;-81
2022/12/20 03:55:36;;;;;;;;;;;;;;;20.58;30.35;103210.56;102188;1330;61378;-81
2022/12/20 03:58:01;;;;;;;;;;;;;;;20.58;30.29;103208.95;102184;1326;61297;-81
2022/12/20 04:00:26;;;;;;;;;;;;;;;20.58;30.45;103207.17;102104;1327;61354;-81
2022/12/20 04:02:52;;;;;;;;;;;;;;;20.58;30.31;103207.52;102142;1331;61300;-81
2022/12/20 04:05:17;;;;;;;;;;;;;;;20.59;30.35;103207.34;102149;1333;61401;-81
2022/12/20 04:07:44;;;;;;;;;;;;;;;20.59;30.30;103207.32;102161;1332;61249;-81
2022/12/20 04:10:09;;;;;;;;;;;;;;;20.59;30.24;103205.00;102168;1326;61269;-81
2022/12/20 04:12:35;;;;;;;;;;;;;;;20.59;30.17;103204.30;102155;1326;61161;-81
2022/12/20 04:15:00;;;;;;;;;;;;;;;20.59;30.17;103199.83;102181;1326;61386;-81
2022/12/20 04:17:26;;;;;;;;;;;;;;;20.59;30.31;103198.37;102119;1326;61276;-81
2022/12/20 04:19:51;;;;;;;;;;;;;;;20.59;30.20;103194.79;102165;1332;61383;-81
2022/12/20 04:22:16;;;;;;;;;;;;;;;20.59;30.33;103197.65;102092;1318;61418;-81
2022/12/20 04:24:42;;;;;;;;;;;;;;;20.60;30.24;103197.98;102201;1326;61308;-81
2022/12/20 04:27:07;;;;;;;;;;;;;;;20.60;30.12;103200.50;102166;1326;73433;-81
2022/12/20 04:29:33;;;;;;;;;;;;;;;20.60;30.18;103196.02;102187;1326;61336;-81
2022/12/20 04:31:58;;;;;;;;;;;;;;;20.60;30.33;103189.05;102159;1326;61305;-81
2022/12/20 04:34:23;;;;;;;;;;;;;;;20.60;30.26;103184.21;102155;1325;61321;-82
2022/12/20 04:36:49;;;;;;;;;;;;;;;20.60;30.19;103184.75;102192;1333;61399;-81
2022/12/20 04:39:14;;;;;;;;;;;;;;;20.59;30.32;103179.22;102139;1326;61445;-81
2022/12/20 04:41:40;;;;;;;;;;;;;;;20.60;30.14;103186.01;102117;1330;60990;-81
2022/12/20 04:44:05;;;;;;;;;;;;;;;20.60;30.27;103190.65;102157;1329;61485;-81
2022/12/20 04:46:30;;;;;;;;;;;;;;;20.60;30.26;103191.71;102186;1332;61378;-81
2022/12/20 04:48:56;;;;;;;;;;;;;;;20.60;30.26;103188.68;102155;1326;60277;-81
2022/12/20 04:51:21;;;;;;;;;;;;;;;20.60;30.13;103184.91;102169;1330;61353;-81
2022/12/20 04:53:47;;;;;;;;;;;;;;;20.60;30.07;103188.15;102081;1335;61715;-81
2022/12/20 04:56:15;;;;;;;;;;;;;;;20.60;30.23;103190.29;102136;1333;61342;-81
2022/12/20 04:58:40;;;;;;;;;;;;;;;20.59;30.33;103194.96;102165;1326;61365;-81
2022/12/20 05:01:06;;;;;;;;;;;;;;;20.60;30.39;103191.55;102115;1333;61406;-81
2022/12/20 05:03:31;;;;;;;;;;;;;;;20.60;30.20;103188.15;102184;1333;81161;-81
2022/12/20 05:05:56;;;;;;;;;;;;;;;20.60;30.17;103185.82;102149;1326;75478;-81
2022/12/20 05:08:22;;;;;;;;;;;;;;;20.60;30.11;103191.72;102186;1326;61380;-81
2022/12/20 05:10:48;;;;;;;;;;;;;;;20.60;30.16;103190.10;102140;1326;61337;-81
2022/12/20 05:13:13;;;;;;;;;;;;;;;20.60;30.13;103181.89;102153;1329;61332;-81
2022/12/20 05:15:38;;;;;;;;;;;;;;;20.62;30.19;103187.59;102133;1329;61427;-81
2022/12/20 05:18:04;;;;;;;;;;;;;;;20.62;30.16;103184.19;102025;1326;74500;-82
2022/12/20 05:20:30;;;;;;;;;;;;;;;20.61;30.17;103183.65;102118;1326;61382;-82
2022/12/20 05:28:31;;;;;;;;;;;;;;;20.55;30.03;103190.64;102111;1327;75336;-82
2022/12/20 05:30:57;;;;;;;;;;;;;;;20.50;29.99;103189.20;102103;1330;61520;-82
2022/12/20 05:33:23;;;;;;;;;;;;;;;20.43;30.04;103189.39;102195;1318;61298;-82
2022/12/20 05:35:49;;;;;;;;;;;;;;;20.38;29.93;103189.17;102248;1318;61414;-82
2022/12/20 05:38:15;;;;;;;;;;;;;;;20.34;29.83;103186.80;102213;1317;61326;-82
2022/12/20 05:40:40;;;;;;;;;;;;;;;20.31;29.69;103183.70;102131;1326;61314;-83
2022/12/20 05:43:06;;;;;;;;;;;;;;;20.28;29.72;103189.31;102295;1310;61408;-81
2022/12/20 05:45:31;;;;;;;;;;;;;;;20.26;29.68;103187.05;102369;1320;60385;-81
2022/12/20 05:47:57;;;;;;;;;;;;;;;20.24;29.65;103182.45;102244;1321;61311;-81
2022/12/20 05:50:22;;;;;;;;;;;;;;;20.21;29.61;103183.26;102235;1321;61405;-82
2022/12/20 05:52:48;;;;;;;;;;;;;;;20.18;29.58;103180.31;102244;1313;60962;-81
2022/12/20 05:55:14;;;;;;;;;;;;;;;20.16;29.24;103174.67;102372;1319;61261;-81
2022/12/20 05:57:39;;;;;;;;;;;;;;;20.14;29.27;103171.52;102353;1320;61350;-82
2022/12/20 06:00:06;;;;;;;;;;;;;;;20.09;29.41;103173.80;102357;1316;59517;-82
2022/12/20 06:02:32;;;;;;;;;;;;;;;20.06;29.21;103171.19;102448;1318;61486;-81
2022/12/20 06:04:58;;;;;;;;;;;;;;;20.02;29.30;103166.14;102328;1319;61295;-83
2022/12/20 06:07:47;;;;;;;;;;;;;;;19.98;29.47;103167.33;102407;1317;61238;-82
2022/12/20 06:10:13;;;;;;;;;;;;;;;19.96;29.36;103162.57;102188;1323;73687;-81
2022/12/20 06:12:38;;;;;;;;;;;;;;;19.94;29.35;103157.42;102277;1321;61307;-81
2022/12/20 06:15:04;;;;;;;;;;;;;;;19.94;29.38;103160.30;102303;1319;58910;-80
2022/12/20 06:17:29;;;;;;;;;;;;;;;19.98;29.33;103161.43;102278;1320;61394;-82
2022/12/20 06:19:55;;;;;;;;;;;;;;;20.02;29.23;103164.16;102290;1325;59466;-82
2022/12/20 06:22:21;;;;;;;;;;;;;;;20.06;29.27;103156.19;102099;1330;71199;-81
2022/12/20 06:24:49;;;;;;;;;;;;;;;20.08;29.13;103152.20;102158;1324;59881;-81
2022/12/20 06:27:15;;;;;;;;;;;;;;;20.10;29.09;103153.02;102256;1331;60528;-80
2022/12/20 06:29:40;;;;;;;;;;;;;;;20.15;29.00;103155.57;102166;1322;61718;-80
2022/12/20 06:32:06;;;;;;;;;;;;;;;20.19;29.08;103153.65;102251;1323;60131;-80
2022/12/20 06:34:32;;;;;;;;;;;;;;;20.25;29.02;103154.53;102143;1327;58960;-80
2022/12/20 06:36:58;;;;;;;;;;;;;;;20.31;28.98;103160.44;102163;1325;61337;-80
2022/12/20 06:39:23;;;;;;;;;;;;;;;20.36;29.02;103161.36;102201;1327;60067;-81
2022/12/20 06:41:49;;;;;;;;;;;;;;;20.41;29.02;103159.05;102166;1320;61156;-80
2022/12/20 06:44:14;;;;;;;;;;;;;;;20.46;29.20;103152.30;102184;1317;61656;-81
2022/12/20 06:46:40;;;;;;;;;;;;;;;20.50;29.28;103150.54;102267;1321;59626;-81
2022/12/20 06:49:05;;;;;;;;;;;;;;;20.54;29.22;103153.10;102299;1317;60102;-81
2022/12/20 06:51:31;;;;;;;;;;;;;;;20.59;29.19;103147.94;102515;1317;60106;-82
2022/12/20 06:53:56;;;;;;;;;;;;;;;20.62;29.32;103148.20;102330;1318;60088;-82
2022/12/20 06:56:22;;;;;;;;;;;;;;;20.62;29.28;103146.58;102381;1324;60865;-81
2022/12/20 06:58:48;;;;;;;;;;;;;;;20.59;29.36;103148.81;102355;1316;61533;-80
2022/12/20 07:01:13;;;;;;;;;;;;;;;20.58;29.58;103154.20;102366;1310;59406;-81
2022/12/20 07:03:39;;;;;;;;;;;;;;;20.60;29.63;103151.48;102425;1313;61606;-83
2022/12/20 07:06:04;;;;;;;;;;;;;;;20.62;29.65;103160.02;102205;1320;61177;-81
2022/12/20 07:08:30;;;;;;;;;;;;;;;20.61;29.67;103160.04;102362;1316;61609;-81
2022/12/20 07:10:55;;;;;;;;;;;;;;;20.62;29.84;103154.83;102439;1313;61323;-81
2022/12/20 07:13:21;;;;;;;;;;;;;;;20.63;29.69;103151.38;102455;1318;60372;-81
2022/12/20 07:15:47;;;;;;;;;;;;;;;20.65;29.79;103153.30;102479;1316;71254;-81
2022/12/20 07:18:13;;;;;;;;;;;;;;;20.66;29.80;103155.95;102495;1316;59743;-81
2022/12/20 07:20:39;;;;;;;;;;;;;;;20.68;29.69;103153.73;102444;1319;72734;-80
2022/12/20 07:23:05;;;;;;;;;;;;;;;20.69;29.83;103156.77;102384;1317;61202;-81
2022/12/20 07:25:30;;;;;;;;;;;;;;;20.70;29.78;103152.60;102394;1321;61329;-81
2022/12/20 07:27:56;;;;;;;;;;;;;;;20.71;29.81;103153.83;102388;1318;61343;-81
2022/12/20 07:30:22;;;;;;;;;;;;;;;20.73;29.84;103150.92;102131;1327;61332;-81
2022/12/20 07:32:48;;;;;;;;;;;;;;;20.74;29.91;103152.14;102250;1320;61363;-81
2022/12/20 07:35:14;;;;;;;;;;;;;;;20.74;30.08;103147.48;102310;1319;75572;-81
2022/12/20 07:37:39;;;;;;;;;;;;;;;20.75;30.01;103148.15;102215;1320;61298;-81
2022/12/20 07:40:05;;;;;;;;;;;;;;;20.76;29.88;103150.27;102316;1313;61796;-81
2022/12/20 07:42:31;;;;;;;;;;;;;;;20.78;30.04;103152.36;102270;1321;61279;-81
2022/12/20 07:44:56;;;;;;;;;;;;;;;20.79;30.02;103150.73;102143;1320;61366;-81
2022/12/20 07:47:22;;;;;;;;;;;;;;;20.79;29.97;103153.40;102388;1317;60074;-82
2022/12/20 07:49:50;;;;;;;;;;;;;;;20.79;30.04;103154.65;102263;1317;61322;-82
2022/12/20 07:52:16;;;;;;;;;;;;;;;20.77;29.98;103154.91;102393;1316;61317;-82
2022/12/20 07:54:50;;;;;;;;;;;;;;;20.72;30.05;103146.30;102398;1317;62317;-81
2022/12/20 07:57:21;;;;;;;;;;;;;;;20.61;30.14;103144.64;102485;1318;76009;-82
2022/12/20 07:59:48;;;;;;;;;;;;;;;20.51;30.33;103139.41;102427;1319;60883;-81
2022/12/20 08:02:19;;;;;;;;;;;;;;;20.48;30.31;103142.21;102498;1313;61444;-81
2022/12/20 08:04:44;;;;;;;;;;;;;;;20.46;30.40;103146.58;102438;1320;73383;-82
2022/12/20 08:07:10;;;;;;;;;;;;;;;20.40;30.40;103143.71;102491;1310;59440;-81
2022/12/20 08:09:36;;;;;;;;;;;;;;;20.32;30.33;103134.83;102487;1317;60248;-83
2022/12/20 08:12:01;;;;;;;;;;;;;;;20.24;30.47;103134.36;102476;1316;60384;-82
2022/12/20 08:14:26;;;;;;;;;;;;;;;20.15;30.34;103129.45;102493;1316;60572;-80
2022/12/20 08:16:52;;;;;;;;;;;;;;;20.07;30.33;103121.10;102517;1317;60876;-81
2022/12/20 08:19:18;;;;;;;;;;;;;;;20.04;30.44;103118.52;101931;1314;776948;-82
2022/12/20 08:21:44;;;;;;;;;;;;;;;20.05;30.40;103113.66;102458;1317;59801;-82
2022/12/20 08:24:09;;;;;;;;;;;;;;;20.09;30.31;103109.98;102493;1317;59630;-81
2022/12/20 08:26:41;;;;;;;;;;;;;;;20.16;30.40;103110.66;102574;1318;59416;-82
2022/12/20 08:29:07;;;;;;;;;;;;;;;20.23;30.31;103103.45;102508;1310;75563;-82
2022/12/20 08:31:36;;;;;;;;;;;;;;;20.30;30.41;103102.35;102464;1318;59680;-81
2022/12/20 08:34:03;;;;;;;;;;;;;;;20.37;30.55;103099.81;102446;1317;60335;-81
2022/12/20 08:36:29;;;;;;;;;;;;;;;20.42;30.63;103095.67;102410;1323;72621;-82
2022/12/20 08:38:54;;;;;;;;;;;;;;;20.47;30.50;103098.59;102486;1318;60057;-82
2022/12/20 08:41:21;;;;;;;;;;;;;;;20.52;30.53;103100.02;102485;1310;61144;-83
2022/12/20 08:43:46;;;;;;;;;;;;;;;20.56;30.55;103098.48;102465;1316;69491;-83
2022/12/20 08:46:12;;;;;;;;;;;;;;;20.56;30.59;103099.18;102471;1317;59544;-82
2022/12/20 08:48:38;;;;;;;;;;;;;;;20.53;30.48;103099.66;102531;1310;60514;-83
2022/12/20 08:51:04;;;;;;;;;;;;;;;20.48;30.48;103092.29;102364;1313;74551;-83
2022/12/20 08:53:30;;;;;;;;;;;;;;;20.42;30.27;103092.66;102413;1310;61117;-83
2022/12/20 08:56:09;;;;;;;;;;;;;;;20.38;30.22;103084.23;102394;1313;61235;-83
2022/12/20 08:58:34;;;;;;;;;;;;;;;20.33;30.08;103080.27;102488;1317;71205;-82
2022/12/20 09:01:02;;;;;;;;;;;;;;;20.28;30.30;103072.55;102477;1314;61559;-82
2022/12/20 09:03:31;;;;;;;;;;;;;;;20.23;30.23;103064.85;102477;1316;60680;-84
2022/12/20 09:05:57;;;;;;;;;;;;;;;20.17;30.21;103058.59;102504;1316;61120;-81
2022/12/20 09:08:24;;;;;;;;;;;;;;;20.07;30.01;103056.41;102455;1318;60094;-82
2022/12/20 09:10:49;;;;;;;;;;;;;;;19.98;30.33;103052.58;102387;1319;61328;-82
2022/12/20 09:13:15;;;;;;;;;;;;;;;19.90;30.22;103045.66;102331;1321;61563;-81
2022/12/20 09:15:41;;;;;;;;;;;;;;;19.83;30.16;103044.28;102486;1316;60590;-81
2022/12/20 09:18:07;;;;;;;;;;;;;;;19.82;30.22;103040.02;102412;1323;60525;-81
2022/12/20 09:20:32;;;;;;;;;;;;;;;19.85;30.25;103038.51;102330;1321;61345;-82
2022/12/20 09:22:58;;;;;;;;;;;;;;;19.90;30.41;103032.98;102393;1321;60413;-81
2022/12/20 09:25:25;;;;;;;;;;;;;;;19.98;30.64;103034.54;102416;1317;61251;-81
2022/12/20 09:27:50;;;;;;;;;;;;;;;20.05;30.65;103029.67;102382;1318;61279;-81
2022/12/20 09:30:16;;;;;;;;;;;;;;;20.11;30.67;103020.52;102319;1321;60256;-81
2022/12/20 09:32:41;;;;;;;;;;;;;;;20.17;30.71;103020.51;102461;1313;60150;-81
2022/12/20 09:35:07;;;;;;;;;;;;;;;20.23;30.60;103012.45;102484;1317;61276;-83
2022/12/20 09:37:32;;;;;;;;;;;;;;;20.29;30.76;103010.31;102555;1318;60197;-83
2022/12/20 09:39:58;;;;;;;;;;;;;;;20.33;30.81;102999.42;102234;1313;61328;-81
2022/12/20 09:42:25;;;;;;;;;;;;;;;20.38;31.09;102997.12;102418;1311;60129;-81
2022/12/20 09:44:50;;;;;;;;;;;;;;;20.42;30.82;102993.39;102454;1316;59958;-81
2022/12/20 09:47:17;;;;;;;;;;;;;;;20.47;31.01;102988.95;102486;1317;59668;-82
2022/12/20 09:49:49;;;;;;;;;;;;;;;20.52;31.05;102987.71;102484;1314;61088;-80
2022/12/20 09:52:34;;;;;;;;;;;;;;;20.56;30.76;102985.43;102510;1310;72606;-82
2022/12/20 09:55:08;;;;;;;;;;;;;;;20.60;30.75;102974.55;102332;1320;75468;-83
2022/12/20 09:57:46;;;;;;;;;;;;;;;20.63;30.85;102973.73;102447;1310;61251;-82
2022/12/20 10:00:13;;;;;;;;;;;;;;;20.60;30.68;102969.36;102510;1310;61642;-83
2022/12/20 10:02:38;;;;;;;;;;;;;;;20.50;30.46;102965.95;102545;1315;60348;-82
2022/12/20 10:05:05;;;;;;;;;;;;;;;20.34;30.44;102962.57;102480;1319;59702;-85
2022/12/20 10:07:31;;;;;;;;;;;;;;;20.22;30.52;102963.66;102497;1317;61321;-84
2022/12/20 10:09:56;;;;;;;;;;;;;;;20.17;30.75;102955.98;102614;1310;61167;-83
2022/12/20 10:12:25;;;;;;;;;;;;;;;20.15;30.64;102953.00;102528;1319;59254;-83
2022/12/20 10:15:10;;;;;;;;;;;;;;;20.09;30.40;102953.54;102596;1322;74382;-82
2022/12/20 10:17:41;;;;;;;;;;;;;;;20.01;30.61;102947.73;102612;1316;60045;-81
2022/12/20 10:20:10;;;;;;;;;;;;;;;19.94;30.53;102941.71;102623;1317;61093;-80
2022/12/20 10:22:38;;;;;;;;;;;;;;;19.89;30.60;102931.87;102530;1318;72603;-80
2022/12/20 10:25:21;;;;;;;;;;;;;;;19.84;30.44;102930.80;102526;1311;74333;-81
2022/12/20 10:27:47;;;;;;;;;;;;;;;19.80;30.64;102931.42;102536;1318;60808;-81
2022/12/20 10:30:13;;;;;;;;;;;;;;;19.76;30.44;102925.48;102532;1310;61105;-80
2022/12/20 10:32:39;;;;;;;;;;;;;;;19.73;30.33;102924.65;102556;1310;61292;-81
2022/12/20 10:35:10;;;;;;;;;;;;;;;19.75;30.38;102922.47;102373;1310;61281;-80
2022/12/20 10:37:37;;;;;;;;;;;;;;;19.79;30.33;102909.84;102223;1318;59664;-80
2022/12/20 10:40:02;;;;;;;;;;;;;;;19.85;30.31;102908.42;102756;1316;60058;-80
2022/12/20 10:42:38;;;;;;;;;;;;;;;19.91;30.16;102908.73;102482;1310;59678;-81
2022/12/20 10:45:05;;;;;;;;;;;;;;;19.97;29.97;102902.11;102503;1316;75705;-81
2022/12/20 10:47:38;;;;;;;;;;;;;;;19.95;29.94;102900.77;102324;1313;61259;-81
2022/12/20 10:50:29;;;;;;;;;;;;;;;19.89;29.92;102893.98;102553;1317;61409;-81
2022/12/20 10:53:03;;;;;;;;;;;;;;;19.83;29.77;102892.95;102439;1317;72719;-81
2022/12/20 10:55:31;;;;;;;;;;;;;;;19.77;29.96;102887.02;102341;1316;75677;-81
2022/12/20 10:58:00;;;;;;;;;;;;;;;19.72;29.84;102882.73;102309;1316;61116;-81
2022/12/20 11:00:28;;;;;;;;;;;;;;;19.66;29.76;102879.17;102418;1310;60218;-80
2022/12/20 11:03:10;;;;;;;;;;;;;;;19.61;29.77;102880.95;102335;1313;72456;-81
2022/12/20 11:05:36;;;;;;;;;;;;;;;19.52;29.59;102879.95;102548;1314;74548;-81
2022/12/20 11:08:20;;;;;;;;;;;;;;;19.40;29.60;102875.69;102511;1310;59587;-81
2022/12/20 11:10:46;;;;;;;;;;;;;;;19.26;29.61;102869.89;102990;1310;60345;-80
2022/12/20 11:13:18;;;;;;;;;;;;;;;19.21;29.68;102865.19;102909;1324;59568;-81
2022/12/20 11:15:47;;;;;;;;;;;;;;;19.18;29.77;102861.36;102935;1319;74417;-81
2022/12/20 11:18:21;;;;;;;;;;;;;;;19.17;29.74;102859.61;102954;1320;59562;-81
2022/12/20 11:20:50;;;;;;;;;;;;;;;19.15;29.79;102857.01;102986;1318;59585;-81
2022/12/20 11:23:22;;;;;;;;;;;;;;;19.15;29.86;102849.17;102991;1319;72759;-81
2022/12/20 11:25:52;;;;;;;;;;;;;;;19.14;29.96;102846.70;102776;1326;74527;-80
2022/12/20 11:28:23;;;;;;;;;;;;;;;19.14;30.00;102840.09;102476;1326;59952;-81
2022/12/20 11:31:08;;;;;;;;;;;;;;;19.13;29.96;102836.02;102498;1318;61359;-81
2022/12/20 11:33:46;;;;;;;;;;;;;;;19.12;29.86;102830.34;102502;1314;73684;-80
2022/12/20 11:36:24;;;;;;;;;;;;;;;19.12;29.95;102823.02;102437;1317;74614;-82
2022/12/20 11:39:22;;;;;;;;;;;;;;;19.15;29.94;102820.60;102435;1318;61370;-80
2022/12/20 11:42:06;;;;;;;;;;;;;;;19.19;29.88;102812.77;102110;1323;60536;-81
2022/12/20 11:44:34;;;;;;;;;;;;;;;19.29;30.13;102806.05;102057;1320;74082;-80
2022/12/20 11:47:05;;;;;;;;;;;;;;;19.36;29.99;102803.15;102134;1324;74578;-81
2022/12/20 11:49:31;;;;;;;;;;;;;;;19.40;29.88;102798.02;102199;1324;60113;-81
2022/12/20 11:52:02;;;;;;;;;;;;;;;19.43;30.02;102795.06;102112;1319;61486;-80
2022/12/20 11:54:29;;;;;;;;;;;;;;;19.45;30.02;102793.59;101987;1324;72626;-82
2022/12/20 11:57:03;;;;;;;;;;;;;;;19.47;29.98;102793.33;102101;1323;75319;-82
2022/12/20 11:59:36;;;;;;;;;;;;;;;19.49;29.98;102787.89;102137;1323;60966;-83
2022/12/20 12:02:12;;;;;;;;;;;;;;;19.47;29.95;102783.14;102192;1324;60172;-82
2022/12/20 12:04:58;;;;;;;;;;;;;;;19.44;30.01;102781.30;102148;1329;72537;-82
2022/12/20 12:07:33;;;;;;;;;;;;;;;19.37;30.11;102783.67;102228;1323;78178;-81
2022/12/20 12:10:19;;;;;;;;;;;;;;;19.30;30.17;102779.80;102265;1323;60016;-82
2022/12/20 12:12:45;;;;;;;;;;;;;;;19.23;30.17;102773.02;102273;1330;60224;-81
2022/12/20 12:15:30;;;;;;;;;;;;;;;19.20;30.18;102772.07;102259;1323;60331;-82
2022/12/20 12:18:00;;;;;;;;;;;;;;;19.16;30.14;102768.61;102446;1327;75650;-81
2022/12/20 12:20:35;;;;;;;;;;;;;;;19.13;30.22;102767.11;102559;1326;60111;-81
2022/12/20 12:23:02;;;;;;;;;;;;;;;19.09;30.24;102761.34;102483;1317;61226;-82
2022/12/20 12:25:27;;;;;;;;;;;;;;;19.07;30.16;102755.89;102521;1320;72406;-82
2022/12/20 12:27:53;;;;;;;;;;;;;;;19.04;30.28;102757.02;102498;1326;60995;-82
2022/12/20 12:30:20;;;;;;;;;;;;;;;19.01;30.17;102751.42;102370;1317;61308;-81
2022/12/20 12:32:55;;;;;;;;;;;;;;;18.99;30.29;102748.30;102366;1317;61308;-80
2022/12/20 12:35:33;;;;;;;;;;;;;;;18.97;30.31;102744.05;102367;1326;72640;-80
2022/12/20 12:38:08;;;;;;;;;;;;;;;18.98;30.27;102737.61;102342;1316;74769;-80